createdAt,value
2018-03-27T00:01:34.146Z,20.50
2018-03-27T00:04:00.278Z,19.77
2018-03-27T00:06:26.391Z,19.97
2018-03-27T00:08:53.267Z,18.70
2018-03-27T00:11:19.411Z,20.10
2018-03-27T00:13:45.610Z,16.70
2018-03-27T00:16:14.661Z,20.13
2018-03-27T00:18:41.631Z,20.47
2018-03-27T00:21:07.790Z,20.77
2018-03-27T00:23:33.894Z,20.73
2018-03-27T00:26:00.044Z,20.17
2018-03-27T00:28:38.365Z,21.00
2018-03-27T00:31:16.736Z,18.80
2018-03-27T00:33:55.030Z,21.40
2018-03-27T00:36:33.520Z,20.53
2018-03-27T00:39:11.706Z,21.20
2018-03-27T00:44:57.587Z,20.20
2018-03-27T00:47:23.715Z,20.07
2018-03-27T00:49:50.386Z,22.60
2018-03-27T00:52:16.654Z,21.20
2018-03-27T00:54:42.761Z,21.60
2018-03-27T00:57:08.870Z,22.73
2018-03-27T00:59:35.759Z,21.40
2018-03-27T01:02:01.881Z,20.43
2018-03-27T01:04:28.731Z,20.53
2018-03-27T01:06:55.645Z,22.30
2018-03-27T01:09:21.796Z,21.90
2018-03-27T01:11:48.588Z,21.17
2018-03-27T01:14:14.821Z,22.17
2018-03-27T01:16:43.284Z,22.43
2018-03-27T01:19:09.551Z,22.20
2018-03-27T01:21:35.755Z,23.07
2018-03-27T01:24:02.003Z,22.73
2018-03-27T01:26:28.141Z,23.17
2018-03-27T01:28:54.228Z,24.30
2018-03-27T01:31:20.330Z,23.77
2018-03-27T01:33:46.486Z,24.73
2018-03-27T01:36:13.342Z,24.27
2018-03-27T01:38:42.093Z,22.00
2018-03-27T01:41:09.597Z,22.80
2018-03-27T01:43:35.918Z,21.97
2018-03-27T01:46:02.068Z,24.03
2018-03-27T01:48:28.205Z,24.70
2018-03-27T01:50:54.323Z,26.33
2018-03-27T01:53:20.466Z,24.90
2018-03-27T01:55:46.643Z,24.57
2018-03-27T01:58:12.784Z,26.40
2018-03-27T02:00:38.925Z,22.80
2018-03-27T02:03:05.054Z,23.60
2018-03-27T02:05:31.210Z,21.80
2018-03-27T02:07:58.057Z,25.23
2018-03-27T02:10:24.927Z,24.17
2018-03-27T02:12:57.251Z,26.37
2018-03-27T02:15:30.856Z,25.17
2018-03-27T02:18:03.171Z,25.17
2018-03-27T02:20:35.439Z,26.20
2018-03-27T02:23:02.528Z,25.40
2018-03-27T02:25:28.646Z,24.13
2018-03-27T02:27:54.751Z,26.03
2018-03-27T02:30:20.881Z,23.30
2018-03-27T02:32:47.027Z,23.17
2018-03-27T02:35:13.185Z,24.67
2018-03-27T02:37:39.381Z,24.00
2018-03-27T02:40:06.248Z,25.73
2018-03-27T02:42:33.080Z,25.50
2018-03-27T02:44:59.232Z,25.87
2018-03-27T02:47:25.369Z,25.10
2018-03-27T02:49:52.225Z,24.20
2018-03-27T02:52:19.086Z,24.57
2018-03-27T02:54:45.227Z,26.20
2018-03-27T02:57:15.118Z,28.83
2018-03-27T02:59:41.271Z,25.60
2018-03-27T03:02:10.419Z,24.97
2018-03-27T03:04:36.680Z,27.03
2018-03-27T03:07:02.825Z,28.23
2018-03-27T03:09:28.936Z,29.93
2018-03-27T03:11:55.074Z,29.10
2018-03-27T03:14:21.211Z,31.07
2018-03-27T03:16:47.362Z,28.53
2018-03-27T03:19:13.494Z,30.60
2018-03-27T03:21:39.698Z,26.33
2018-03-27T03:24:07.189Z,28.20
2018-03-27T03:26:33.482Z,25.73
2018-03-27T03:28:59.602Z,26.83
2018-03-27T03:31:25.717Z,27.63
2018-03-27T03:33:51.854Z,28.53
2018-03-27T03:36:18.675Z,28.30
2018-03-27T03:38:44.810Z,27.07
2018-03-27T03:41:10.934Z,27.10
2018-03-27T03:43:37.054Z,25.83
2018-03-27T03:46:03.230Z,25.60
2018-03-27T03:48:29.350Z,29.87
2018-03-27T03:50:55.488Z,26.65
2018-03-27T03:53:21.607Z,29.12
2018-03-27T03:55:47.751Z,27.20
2018-03-27T03:58:13.938Z,26.10
2018-03-27T04:00:40.806Z,27.97
2018-03-27T04:03:07.661Z,26.60
2018-03-27T04:05:33.777Z,26.95
2018-03-27T04:07:59.899Z,28.48
2018-03-27T04:10:26.032Z,28.40
2018-03-27T04:12:52.220Z,26.60
2018-03-27T04:15:27.347Z,28.00
2018-03-27T04:17:53.475Z,26.10
2018-03-27T04:20:19.656Z,28.17
2018-03-27T04:22:46.517Z,28.60
2018-03-27T04:25:12.666Z,28.60
2018-03-27T04:27:38.891Z,28.33
2018-03-27T04:30:05.074Z,29.75
2018-03-27T04:32:31.239Z,28.45
2018-03-27T04:34:57.490Z,30.98
2018-03-27T04:37:24.413Z,28.42
2018-03-27T04:39:50.547Z,30.35
2018-03-27T04:42:16.774Z,33.03
2018-03-27T04:44:43.201Z,30.37
2018-03-27T04:47:09.290Z,32.03
2018-03-27T04:49:35.504Z,30.67
2018-03-27T04:52:01.630Z,31.25
2018-03-27T04:54:27.842Z,33.00
2018-03-27T04:56:54.721Z,31.70
2018-03-27T04:59:20.934Z,32.00
2018-03-27T05:01:47.114Z,31.12
2018-03-27T05:04:13.253Z,31.92
2018-03-27T05:06:39.372Z,31.17
2018-03-27T05:09:06.668Z,33.40
2018-03-27T05:11:32.842Z,32.75
2018-03-27T05:13:58.991Z,32.70
2018-03-27T05:16:25.962Z,33.13
2018-03-27T05:18:52.842Z,36.00
2018-03-27T05:21:19.085Z,34.20
2018-03-27T05:23:45.242Z,35.10
2018-03-27T05:26:11.395Z,34.47
2018-03-27T05:28:37.510Z,32.65
2018-03-27T05:31:03.661Z,33.92
2018-03-27T05:33:29.834Z,33.72
2018-03-27T05:35:55.921Z,31.55
2018-03-27T05:38:22.242Z,32.55
2018-03-27T05:40:48.435Z,34.75
2018-03-27T05:43:14.559Z,38.03
2018-03-27T05:45:40.788Z,35.50
2018-03-27T05:48:06.915Z,35.60
2018-03-27T05:50:33.019Z,35.15
2018-03-27T05:52:59.199Z,35.97
2018-03-27T05:55:25.386Z,32.87
2018-03-27T05:57:51.563Z,36.42
2018-03-27T06:00:17.819Z,35.30
2018-03-27T06:02:43.980Z,36.08
2018-03-27T06:05:13.620Z,37.70
2018-03-27T06:07:39.834Z,38.50
2018-03-27T06:10:05.998Z,39.97
2018-03-27T06:12:32.098Z,37.30
2018-03-27T06:14:58.273Z,39.20
2018-03-27T06:17:24.469Z,38.50
2018-03-27T06:19:51.686Z,38.67
2018-03-27T06:22:19.117Z,39.50
2018-03-27T06:24:45.428Z,42.27
2018-03-27T06:27:12.494Z,37.83
2018-03-27T06:29:38.795Z,39.58
2018-03-27T06:32:05.003Z,38.97
2018-03-27T06:34:31.443Z,39.27
2018-03-27T06:36:57.782Z,40.87
2018-03-27T06:39:24.045Z,39.90
2018-03-27T06:41:50.233Z,41.67
2018-03-27T06:44:16.470Z,40.47
2018-03-27T06:46:42.978Z,41.30
2018-03-27T06:49:09.600Z,38.77
2018-03-27T06:51:35.946Z,39.33
2018-03-27T06:54:02.316Z,41.57
2018-03-27T06:56:28.812Z,39.27
2018-03-27T06:58:55.038Z,40.23
2018-03-27T07:01:21.335Z,40.80
2018-03-27T07:03:47.610Z,39.50
2018-03-27T07:06:14.663Z,42.20
2018-03-27T07:08:40.908Z,37.23
2018-03-27T07:11:07.173Z,37.30
2018-03-27T07:13:34.240Z,39.10
2018-03-27T07:16:00.522Z,35.40
2018-03-27T07:18:26.868Z,36.00
2018-03-27T07:20:53.099Z,39.50
2018-03-27T07:23:19.353Z,36.47
2018-03-27T07:25:45.690Z,36.40
2018-03-27T07:28:11.840Z,34.57
2018-03-27T07:30:38.103Z,35.93
2018-03-27T07:33:04.219Z,37.90
2018-03-27T07:35:31.528Z,35.00
2018-03-27T07:37:57.712Z,32.70
2018-03-27T07:40:23.996Z,35.07
2018-03-27T07:42:50.304Z,32.10
2018-03-27T07:45:16.568Z,33.43
2018-03-27T07:47:42.735Z,31.87
2018-03-27T07:50:08.912Z,32.00
2018-03-27T07:52:35.113Z,30.10
2018-03-27T07:55:02.079Z,29.93
2018-03-27T07:57:28.291Z,28.80
2018-03-27T07:59:54.429Z,31.20
2018-03-27T08:02:20.718Z,28.63
2018-03-27T08:04:46.847Z,29.57
2018-03-27T08:07:13.707Z,29.20
2018-03-27T08:09:40.667Z,28.17
2018-03-27T08:12:07.586Z,29.33
2018-03-27T08:14:33.741Z,29.80
2018-03-27T08:16:59.999Z,27.03
2018-03-27T08:19:27.400Z,28.27
2018-03-27T08:21:53.662Z,27.23
2018-03-27T08:24:20.335Z,26.97
2018-03-27T08:26:46.499Z,25.60
2018-03-27T08:29:12.853Z,28.63
2018-03-27T08:31:39.106Z,28.13
2018-03-27T08:34:05.402Z,26.23
2018-03-27T08:36:31.705Z,26.60
2018-03-27T08:38:57.902Z,27.80
2018-03-27T08:41:24.603Z,26.10
2018-03-27T08:43:50.860Z,30.33
2018-03-27T08:46:19.852Z,28.67
2018-03-27T08:48:46.400Z,27.70
2018-03-27T08:51:12.590Z,28.50
2018-03-27T08:53:38.716Z,30.27
2018-03-27T08:56:04.942Z,29.23
2018-03-27T08:58:31.296Z,30.60
2018-03-27T09:00:57.699Z,29.63
2018-03-27T09:03:24.177Z,30.00
2018-03-27T09:05:59.472Z,27.53
2018-03-27T09:08:26.421Z,28.23
2018-03-27T09:10:53.673Z,27.47
2018-03-27T09:13:20.006Z,25.57
2018-03-27T09:15:46.254Z,25.40
2018-03-27T09:18:13.681Z,27.50
2018-03-27T09:20:42.978Z,22.40
2018-03-27T09:23:09.707Z,22.10
2018-03-27T09:25:37.246Z,23.17
2018-03-27T09:28:03.453Z,21.70
2018-03-27T09:30:31.639Z,24.43
2018-03-27T09:32:57.796Z,23.60
2018-03-27T09:35:23.960Z,23.00
2018-03-27T09:37:51.044Z,22.10
2018-03-27T09:40:17.358Z,20.80
2018-03-27T09:42:43.586Z,22.90
2018-03-27T09:45:09.802Z,23.00
2018-03-27T09:47:35.950Z,20.27
2018-03-27T09:50:02.174Z,22.17
2018-03-27T09:52:29.177Z,20.67
2018-03-27T09:54:55.984Z,19.13
2018-03-27T09:57:22.545Z,18.57
2018-03-27T09:59:49.394Z,18.00
2018-03-27T10:02:15.751Z,18.57
2018-03-27T10:04:42.044Z,17.20
2018-03-27T10:07:09.040Z,17.07
2018-03-27T10:09:36.075Z,14.50
2018-03-27T10:12:03.004Z,13.43
2018-03-27T10:14:29.114Z,11.10
2018-03-27T10:16:55.382Z,10.40
2018-03-27T10:19:22.767Z,10.17
2018-03-27T10:21:49.015Z,10.20
2018-03-27T10:24:15.308Z,11.07
2018-03-27T10:26:41.738Z,10.50
2018-03-27T10:29:07.960Z,9.80
2018-03-27T10:31:34.150Z,8.90
2018-03-27T10:34:00.415Z,9.20
2018-03-27T10:36:26.680Z,8.43
2018-03-27T10:38:52.838Z,8.67
2018-03-27T10:41:20.036Z,8.10
2018-03-27T10:43:46.146Z,9.63
2018-03-27T10:46:12.551Z,10.83
2018-03-27T10:48:38.645Z,10.33
2018-03-27T10:51:04.917Z,10.20
2018-03-27T10:53:31.079Z,11.90
2018-03-27T10:55:57.853Z,11.80
2018-03-27T10:58:24.075Z,11.90
2018-03-27T11:00:50.306Z,11.97
2018-03-27T11:03:17.232Z,12.97
2018-03-27T11:05:43.365Z,12.43
2018-03-27T11:08:10.314Z,15.50
2018-03-27T11:10:36.418Z,14.40
2018-03-27T11:13:02.772Z,12.63
2018-03-27T11:15:29.728Z,12.00
2018-03-27T11:17:56.758Z,13.07
2018-03-27T11:20:23.055Z,13.30
2018-03-27T11:22:49.685Z,13.00
2018-03-27T11:25:18.435Z,13.33
2018-03-27T11:27:44.744Z,13.40
2018-03-27T11:30:10.880Z,11.73
2018-03-27T11:32:37.821Z,12.37
2018-03-27T11:35:04.833Z,14.13
2018-03-27T11:37:30.944Z,14.90
2018-03-27T11:39:57.130Z,14.27
2018-03-27T11:42:23.297Z,14.07
2018-03-27T11:44:50.199Z,13.50
2018-03-27T11:47:16.427Z,13.43
2018-03-27T11:49:43.207Z,13.70
2018-03-27T11:52:09.525Z,13.20
2018-03-27T11:54:35.797Z,13.60
2018-03-27T11:57:01.920Z,12.97
2018-03-27T11:59:28.007Z,14.00
2018-03-27T12:01:55.267Z,13.43
2018-03-27T12:04:21.455Z,16.40
2018-03-27T12:06:47.582Z,13.20
2018-03-27T12:09:13.975Z,13.60
2018-03-27T12:11:40.272Z,15.50
2018-03-27T12:14:06.513Z,14.40
2018-03-27T12:16:32.657Z,15.60
2018-03-27T12:18:58.791Z,15.33
2018-03-27T12:21:24.910Z,15.80
2018-03-27T12:23:51.735Z,14.63
2018-03-27T12:26:17.831Z,17.33
2018-03-27T12:28:43.952Z,16.40
2018-03-27T12:31:10.048Z,16.40
2018-03-27T12:33:36.245Z,16.93
2018-03-27T12:36:02.403Z,17.37
2018-03-27T12:38:28.793Z,18.50
2018-03-27T12:40:54.957Z,19.33
2018-03-27T12:43:21.166Z,18.53
2018-03-27T12:45:48.124Z,19.37
2018-03-27T12:48:14.293Z,18.77
2018-03-27T12:50:40.527Z,18.17
2018-03-27T12:53:08.870Z,19.30
2018-03-27T12:55:35.113Z,18.60
2018-03-27T12:58:01.271Z,18.20
2018-03-27T13:00:28.213Z,20.13
2018-03-27T13:02:54.764Z,19.00
2018-03-27T13:05:21.166Z,18.80
2018-03-27T13:07:47.384Z,19.83
2018-03-27T13:10:13.569Z,20.13
2018-03-27T13:12:39.793Z,18.53
2018-03-27T13:15:08.107Z,19.50
2018-03-27T13:17:34.388Z,19.50
2018-03-27T13:20:01.116Z,19.53
2018-03-27T13:22:27.406Z,20.40
2018-03-27T13:24:54.044Z,19.63
2018-03-27T13:27:20.198Z,17.90
2018-03-27T13:29:46.996Z,16.03
2018-03-27T13:32:13.979Z,16.77
2018-03-27T13:34:40.117Z,15.90
2018-03-27T13:37:07.576Z,15.60
2018-03-27T13:39:33.798Z,14.93
2018-03-27T13:41:59.950Z,13.70
2018-03-27T13:44:29.607Z,15.37
2018-03-27T13:46:55.946Z,13.17
2018-03-27T13:49:22.288Z,14.87
2018-03-27T13:51:48.559Z,13.83
2018-03-27T13:54:14.691Z,14.07
2018-03-27T13:56:40.922Z,14.60
2018-03-27T13:59:07.067Z,13.40
2018-03-27T14:01:33.343Z,15.17
2018-03-27T14:03:59.522Z,14.90
2018-03-27T14:06:26.382Z,15.53
2018-03-27T14:08:52.544Z,15.47
2018-03-27T14:11:19.131Z,14.90
2018-03-27T14:13:45.388Z,16.23
2018-03-27T14:16:11.585Z,16.53
2018-03-27T14:18:38.006Z,15.83
2018-03-27T14:21:05.252Z,16.27
2018-03-27T14:23:31.495Z,16.93
2018-03-27T14:25:57.842Z,17.90
2018-03-27T14:28:25.059Z,17.73
2018-03-27T14:30:51.320Z,17.27
2018-03-27T14:33:18.462Z,17.60
2018-03-27T14:35:44.747Z,18.30
2018-03-27T14:38:11.024Z,18.83
2018-03-27T14:40:37.236Z,20.60
2018-03-27T14:43:03.581Z,20.63
2018-03-27T14:45:30.598Z,21.37
2018-03-27T14:47:57.253Z,20.10
2018-03-27T14:50:24.888Z,21.30
2018-03-27T14:52:51.144Z,19.17
2018-03-27T14:55:17.689Z,22.07
2018-03-27T14:57:47.161Z,19.80
2018-03-27T15:00:13.495Z,20.90
2018-03-27T15:02:39.640Z,21.07
2018-03-27T15:05:05.942Z,22.10
2018-03-27T15:07:32.075Z,20.70
2018-03-27T15:09:59.023Z,17.13
2018-03-27T15:12:25.119Z,19.87
2018-03-27T15:14:51.324Z,22.00
2018-03-27T15:17:17.484Z,20.47
2018-03-27T15:19:43.687Z,18.03
2018-03-27T15:22:10.190Z,19.63
2018-03-27T15:24:36.390Z,21.17
2018-03-27T15:27:02.631Z,22.67
2018-03-27T15:29:28.845Z,22.57
2018-03-27T15:31:56.465Z,22.13
2018-03-27T15:34:22.611Z,19.70
2018-03-27T15:36:48.817Z,22.87
2018-03-27T15:39:14.912Z,24.60
2018-03-27T15:41:41.084Z,24.30
2018-03-27T15:44:07.463Z,23.90
2018-03-27T15:46:34.730Z,25.77
2018-03-27T15:49:00.997Z,25.03
2018-03-27T15:51:27.985Z,23.93
2018-03-27T15:53:54.256Z,26.50
2018-03-27T15:56:20.745Z,24.40
2018-03-27T15:58:47.681Z,24.47
2018-03-27T16:01:15.073Z,26.20
2018-03-27T16:03:43.199Z,24.27
2018-03-27T16:06:10.272Z,26.97
2018-03-27T16:08:38.785Z,26.20
2018-03-27T16:11:06.517Z,25.60
2018-03-27T16:13:32.795Z,24.93
2018-03-27T16:15:58.929Z,26.90
2018-03-27T16:18:25.072Z,29.10
2018-03-27T16:20:51.257Z,26.57
2018-03-27T16:23:18.123Z,23.80
2018-03-27T16:25:45.055Z,21.63
2018-03-27T16:28:11.163Z,20.33
2018-03-27T16:30:37.284Z,16.50
2018-03-27T16:33:03.443Z,13.70
2018-03-27T16:35:29.586Z,12.30
2018-03-27T16:37:55.736Z,11.53
2018-03-27T16:40:21.954Z,12.00
2018-03-27T16:42:48.094Z,12.73
2018-03-27T16:45:14.232Z,12.97
2018-03-27T16:47:40.363Z,13.90
2018-03-27T16:50:06.550Z,13.57
2018-03-27T16:52:36.116Z,12.87
2018-03-27T16:55:02.301Z,13.80
2018-03-27T16:57:28.399Z,13.27
2018-03-27T16:59:55.237Z,13.70
2018-03-27T17:02:21.834Z,15.00
2018-03-27T17:04:48.056Z,14.40
2018-03-27T17:07:14.210Z,14.70
2018-03-27T17:09:44.997Z,13.43
2018-03-27T17:12:11.898Z,12.80
2018-03-27T17:14:38.025Z,12.50
2018-03-27T17:17:13.876Z,11.80
2018-03-27T17:19:40.102Z,12.40
2018-03-27T17:22:15.364Z,14.90
2018-03-27T17:24:44.890Z,14.50
2018-03-27T17:27:11.201Z,13.40
2018-03-27T17:29:45.895Z,16.30
2018-03-27T17:32:12.198Z,16.00
2018-03-27T17:34:38.638Z,16.70
2018-03-27T17:37:04.873Z,18.00
2018-03-27T17:39:39.633Z,19.50
2018-03-27T17:42:07.582Z,19.63
2018-03-27T17:44:33.879Z,20.00
2018-03-27T17:47:00.084Z,22.07
2018-03-27T17:49:26.543Z,20.70
2018-03-27T17:51:52.752Z,22.87
2018-03-27T17:54:19.083Z,22.40
2018-03-27T17:56:45.390Z,21.60
2018-03-27T17:59:11.693Z,24.27
2018-03-27T18:01:37.914Z,22.20
2018-03-27T18:04:04.666Z,23.53
2018-03-27T18:06:32.386Z,23.77
2018-03-27T18:08:58.824Z,25.50
2018-03-27T18:11:26.491Z,24.23
2018-03-27T18:13:52.863Z,26.30
2018-03-27T18:16:19.107Z,27.67
2018-03-27T18:18:45.487Z,23.80
2018-03-27T18:21:12.906Z,28.70
2018-03-27T18:23:40.068Z,26.33
2018-03-27T18:26:06.364Z,30.10
2018-03-27T18:28:33.431Z,29.13
2018-03-27T18:30:59.915Z,27.77
2018-03-27T18:33:26.988Z,28.07
2018-03-27T18:35:53.367Z,29.70
2018-03-27T18:38:19.608Z,30.10
2018-03-27T18:40:45.914Z,33.70
2018-03-27T18:43:13.281Z,33.63
2018-03-27T18:45:42.640Z,31.33
2018-03-27T18:48:12.447Z,36.73
2018-03-27T18:50:38.887Z,34.97
2018-03-27T18:53:07.227Z,35.07
2018-03-27T18:55:33.764Z,35.50
2018-03-27T18:58:00.512Z,34.20
2018-03-27T19:00:28.047Z,34.53
2018-03-27T19:02:54.405Z,36.00
2018-03-27T19:05:20.713Z,34.73
2018-03-27T19:07:47.572Z,35.60
2018-03-27T19:10:14.736Z,35.53
2018-03-27T19:12:43.331Z,34.03
2018-03-27T19:15:10.240Z,33.47
2018-03-27T19:17:36.630Z,36.17
2018-03-27T19:20:04.480Z,33.10
2018-03-27T19:22:30.724Z,35.03
2018-03-27T19:24:56.906Z,37.60
2018-03-27T19:27:23.155Z,39.60
2018-03-27T19:29:49.269Z,34.40
2018-03-27T19:32:16.479Z,38.90
2018-03-27T19:34:43.621Z,36.30
2018-03-27T19:37:15.368Z,38.10
2018-03-27T19:39:42.701Z,36.73
2018-03-27T21:40:02.607Z,27.47
2018-03-27T21:42:28.791Z,28.13
2018-03-27T21:44:55.015Z,28.30
2018-03-27T21:47:21.956Z,27.17
2018-03-27T21:49:48.352Z,26.40
2018-03-27T21:52:14.463Z,28.27
2018-03-27T21:54:40.934Z,25.37
2018-03-27T21:57:07.152Z,27.83
2018-03-27T21:59:33.424Z,28.10
2018-03-27T22:01:59.700Z,29.23
2018-03-27T22:04:25.912Z,27.50
2018-03-27T22:06:52.098Z,30.57
2018-03-27T22:09:18.380Z,28.33
2018-03-27T22:11:46.396Z,27.67
2018-03-27T22:14:12.524Z,29.87
2018-03-27T22:16:38.740Z,26.60
2018-03-27T22:19:04.978Z,26.93
2018-03-27T22:21:31.186Z,27.00
2018-03-27T22:23:58.143Z,26.80
2018-03-27T22:26:24.263Z,28.90
2018-03-27T22:28:50.405Z,30.70
2018-03-27T22:31:16.580Z,29.03
2018-03-27T22:33:43.512Z,30.27
2018-03-27T22:36:10.659Z,28.07
2018-03-27T22:38:36.892Z,28.30
2018-03-27T22:41:05.596Z,28.30
2018-03-27T22:43:31.944Z,30.10
2018-03-27T22:45:58.134Z,30.13
2018-03-27T22:48:24.259Z,28.60
2018-03-27T22:50:51.184Z,28.30
2018-03-27T22:53:17.344Z,28.47
2018-03-27T22:55:45.709Z,28.70
2018-03-27T22:58:13.845Z,26.20
2018-03-27T23:00:40.205Z,29.37
2018-03-27T23:03:06.302Z,28.80
2018-03-27T23:05:33.211Z,28.77
2018-03-27T23:07:59.378Z,27.80
2018-03-27T23:10:26.309Z,29.27
2018-03-27T23:12:52.743Z,29.70
2018-03-27T23:15:18.859Z,28.40
2018-03-27T23:17:45.084Z,32.20
2018-03-27T23:20:14.315Z,28.77
2018-03-27T23:22:40.537Z,30.27
2018-03-27T23:25:07.483Z,31.87
2018-03-27T23:27:33.700Z,32.20
2018-03-27T23:29:59.854Z,34.80
2018-03-27T23:32:25.969Z,38.17
2018-03-27T23:34:52.235Z,35.10
2018-03-27T23:37:18.411Z,36.67
2018-03-27T23:39:44.539Z,37.90
2018-03-27T23:42:10.682Z,36.70
2018-03-27T23:44:37.628Z,35.63
2018-03-27T23:47:08.721Z,40.87
2018-03-27T23:49:34.835Z,39.00
2018-03-27T23:52:00.962Z,37.90
2018-03-27T23:54:27.816Z,39.50
2018-03-27T23:56:55.447Z,38.07
2018-03-27T23:59:21.714Z,34.57
